createdAt,value
2019-02-20T00:02:25.521Z,6.87
2019-02-20T00:04:54.115Z,8.25
2019-02-20T00:07:22.710Z,7.33
2019-02-20T00:09:51.342Z,7.35
2019-02-20T00:12:19.942Z,8.30
2019-02-20T00:14:48.502Z,8.25
2019-02-20T00:17:17.101Z,7.53
2019-02-20T00:19:45.725Z,6.97
2019-02-20T00:22:14.327Z,6.37
2019-02-20T00:24:42.884Z,5.92
2019-02-20T00:27:11.440Z,6.35
2019-02-20T00:29:40.041Z,6.12
2019-02-20T00:32:08.596Z,5.80
2019-02-20T00:34:37.193Z,6.12
2019-02-20T00:37:05.756Z,5.87
2019-02-20T00:39:34.351Z,5.85
2019-02-20T00:42:04.181Z,6.35
2019-02-20T00:44:50.465Z,6.37
2019-02-20T00:47:20.704Z,6.15
2019-02-20T00:49:49.257Z,7.70
2019-02-20T00:52:19.448Z,8.63
2019-02-20T00:54:48.052Z,9.38
2019-02-20T00:57:16.605Z,8.40
2019-02-20T00:59:45.207Z,8.25
2019-02-20T01:02:13.762Z,8.10
2019-02-20T01:04:42.356Z,8.75
2019-02-20T01:07:10.912Z,9.45
2019-02-20T01:09:39.516Z,8.30
2019-02-20T01:12:08.136Z,7.72
2019-02-20T01:14:36.737Z,7.22
2019-02-20T01:17:05.298Z,7.33
2019-02-20T01:19:33.893Z,6.67
2019-02-20T01:22:02.517Z,6.92
2019-02-20T01:24:31.118Z,6.62
2019-02-20T01:26:59.752Z,6.70
2019-02-20T01:29:28.348Z,5.67
2019-02-20T01:31:57.002Z,5.58
2019-02-20T01:34:25.582Z,5.78
2019-02-20T01:36:54.138Z,6.03
2019-02-20T01:39:22.803Z,6.55
2019-02-20T01:41:51.392Z,6.53
2019-02-20T01:44:19.984Z,6.95
2019-02-20T01:46:48.544Z,7.08
2019-02-20T01:49:17.212Z,8.05
2019-02-20T01:51:45.760Z,8.38
2019-02-20T01:54:14.361Z,8.45
2019-02-20T01:56:42.918Z,8.48
2019-02-20T01:59:11.520Z,7.85
2019-02-20T02:01:40.071Z,7.95
2019-02-20T02:04:08.675Z,7.60
2019-02-20T02:06:37.220Z,7.75
2019-02-20T02:09:07.161Z,8.53
2019-02-20T02:11:35.717Z,8.70
2019-02-20T02:14:04.381Z,7.92
2019-02-20T02:16:32.936Z,7.80
2019-02-20T02:19:01.552Z,8.03
2019-02-20T02:21:30.168Z,8.55
2019-02-20T02:23:58.764Z,7.80
2019-02-20T02:26:27.321Z,7.90
2019-02-20T02:28:55.926Z,7.58
2019-02-20T02:31:24.486Z,9.65
2019-02-20T02:33:53.086Z,8.05
2019-02-20T02:36:21.636Z,7.17
2019-02-20T02:38:50.234Z,7.20
2019-02-20T02:41:18.784Z,6.75
2019-02-20T02:43:47.385Z,7.55
2019-02-20T02:46:15.957Z,6.92
2019-02-20T02:48:44.557Z,7.37
2019-02-20T02:51:13.109Z,7.05
2019-02-20T02:53:41.660Z,7.22
2019-02-20T02:56:10.268Z,8.65
2019-02-20T02:58:38.826Z,7.25
2019-02-20T03:01:07.436Z,7.28
2019-02-20T03:03:36.058Z,6.80
2019-02-20T03:06:04.600Z,7.35
2019-02-20T03:08:33.157Z,7.25
2019-02-20T03:11:01.756Z,6.87
2019-02-20T03:13:30.308Z,7.15
2019-02-20T03:15:58.908Z,7.75
2019-02-20T03:18:27.468Z,7.40
2019-02-20T03:20:56.069Z,7.28
2019-02-20T03:23:24.709Z,7.35
2019-02-20T03:25:53.302Z,7.35
2019-02-20T03:28:21.855Z,8.70
2019-02-20T03:30:50.453Z,7.78
2019-02-20T03:33:19.009Z,8.68
2019-02-20T03:35:47.716Z,8.23
2019-02-20T03:38:16.263Z,9.30
2019-02-20T03:40:44.865Z,8.75
2019-02-20T03:43:13.492Z,8.20
2019-02-20T03:45:42.161Z,8.55
2019-02-20T03:48:10.705Z,8.53
2019-02-20T03:50:39.305Z,8.95
2019-02-20T03:53:07.924Z,7.95
2019-02-20T03:55:36.586Z,8.40
2019-02-20T03:58:05.216Z,9.10
2019-02-20T04:00:33.821Z,8.23
2019-02-20T04:03:02.390Z,8.60
2019-02-20T04:05:31.001Z,7.97
2019-02-20T04:07:59.561Z,8.18
2019-02-20T04:10:28.161Z,8.15
2019-02-20T04:12:56.786Z,8.28
2019-02-20T04:15:25.312Z,7.92
2019-02-20T04:17:53.915Z,7.45
2019-02-20T04:20:22.469Z,8.25
2019-02-20T04:22:51.025Z,8.10
2019-02-20T04:25:19.655Z,7.80
2019-02-20T04:27:48.222Z,7.83
2019-02-20T04:30:16.814Z,8.10
2019-02-20T04:32:45.361Z,7.95
2019-02-20T04:35:13.969Z,8.35
2019-02-20T04:37:42.527Z,8.85
2019-02-20T04:40:11.120Z,10.60
2019-02-20T04:42:39.761Z,10.40
2019-02-20T04:45:08.486Z,9.78
2019-02-20T04:47:37.115Z,9.38
2019-02-20T04:50:08.248Z,10.15
2019-02-20T04:52:36.804Z,8.78
2019-02-20T04:55:06.657Z,8.23
2019-02-20T04:57:35.198Z,9.40
2019-02-20T05:00:04.578Z,9.78
2019-02-20T05:02:33.125Z,9.78
2019-02-20T05:05:01.719Z,10.18
2019-02-20T05:07:30.269Z,9.60
2019-02-20T05:09:58.865Z,9.00
2019-02-20T05:12:27.441Z,8.18
2019-02-20T05:14:56.014Z,9.15
2019-02-20T05:17:24.569Z,8.18
2019-02-20T05:19:53.199Z,8.43
2019-02-20T05:22:21.752Z,7.72
2019-02-20T05:24:50.344Z,7.75
2019-02-20T05:27:18.894Z,8.73
2019-02-20T05:29:47.489Z,8.25
2019-02-20T05:32:16.037Z,7.92
2019-02-20T05:34:44.651Z,8.63
2019-02-20T05:37:13.189Z,8.15
2019-02-20T05:39:41.796Z,8.45
2019-02-20T05:42:10.341Z,7.28
2019-02-20T05:44:38.937Z,8.65
2019-02-20T05:47:07.535Z,7.28
2019-02-20T05:49:36.148Z,7.42
2019-02-20T05:52:04.707Z,7.80
2019-02-20T05:54:34.926Z,8.10
2019-02-20T05:57:03.544Z,7.78
2019-02-20T05:59:32.144Z,8.45
2019-02-20T06:02:00.697Z,8.90
2019-02-20T06:04:29.297Z,9.50
2019-02-20T06:06:57.860Z,9.30
2019-02-20T06:09:26.467Z,8.98
2019-02-20T06:11:55.014Z,9.93
2019-02-20T06:14:23.624Z,10.18
2019-02-20T06:16:52.186Z,9.68
2019-02-20T06:19:20.787Z,8.83
2019-02-20T06:21:49.338Z,8.95
2019-02-20T06:24:17.940Z,9.73
2019-02-20T06:26:46.509Z,10.50
2019-02-20T06:29:15.101Z,10.20
2019-02-20T06:31:45.721Z,10.40
2019-02-20T06:34:14.410Z,9.90
2019-02-20T06:36:42.948Z,9.53
2019-02-20T06:39:11.566Z,12.88
2019-02-20T06:41:40.120Z,15.08
2019-02-20T06:44:08.725Z,17.32
2019-02-20T06:46:37.974Z,19.50
2019-02-20T06:49:09.978Z,18.30
2019-02-20T06:51:38.697Z,20.30
2019-02-20T06:54:08.503Z,21.15
2019-02-20T06:56:37.180Z,23.85
2019-02-20T06:59:05.788Z,25.72
2019-02-20T07:01:34.343Z,20.68
2019-02-20T07:04:05.017Z,22.42
2019-02-20T07:06:36.658Z,19.80
2019-02-20T07:09:17.157Z,18.32
2019-02-20T07:12:09.521Z,18.70
2019-02-20T07:14:49.835Z,17.73
2019-02-20T07:17:37.928Z,19.07
2019-02-20T07:20:21.470Z,21.02
2019-02-20T07:23:02.239Z,22.15
2019-02-20T07:25:45.602Z,24.07
2019-02-20T07:28:32.165Z,22.25
2019-02-20T07:31:00.740Z,19.17
2019-02-20T07:33:29.342Z,18.87
2019-02-20T07:35:57.905Z,18.35
2019-02-20T07:38:26.521Z,17.35
2019-02-20T07:40:55.076Z,18.40
2019-02-20T07:43:23.680Z,17.00
2019-02-20T07:45:52.255Z,16.25
2019-02-20T07:48:20.840Z,16.67
2019-02-20T07:50:49.427Z,16.82
2019-02-20T07:53:18.001Z,17.42
2019-02-20T07:55:46.618Z,19.73
2019-02-20T07:58:15.186Z,19.82
2019-02-20T08:00:43.793Z,20.05
2019-02-20T08:03:12.357Z,19.37
2019-02-20T08:05:40.973Z,18.40
2019-02-20T08:08:09.608Z,18.82
2019-02-20T08:10:38.212Z,17.02
2019-02-20T08:13:09.412Z,17.63
2019-02-20T08:15:37.816Z,16.57
2019-02-20T08:18:06.378Z,17.87
2019-02-20T08:20:34.985Z,18.67
2019-02-20T08:23:03.618Z,16.63
2019-02-20T08:25:32.217Z,19.65
2019-02-20T08:28:00.791Z,17.82
2019-02-20T08:30:29.402Z,17.80
2019-02-20T08:32:57.973Z,19.75
2019-02-20T08:35:26.594Z,21.20
2019-02-20T08:37:55.148Z,21.97
2019-02-20T08:40:24.149Z,22.32
2019-02-20T08:42:52.799Z,21.82
2019-02-20T08:45:21.403Z,22.13
2019-02-20T08:47:50.053Z,21.45
2019-02-20T08:50:18.667Z,22.35
2019-02-20T08:52:47.464Z,20.85
2019-02-20T08:55:16.077Z,20.37
2019-02-20T08:57:44.641Z,20.08
2019-02-20T09:00:15.013Z,24.72
2019-02-20T09:02:43.589Z,21.10
2019-02-20T09:05:12.553Z,21.12
2019-02-20T09:07:41.203Z,18.37
2019-02-20T09:10:12.009Z,18.80
2019-02-20T09:12:40.707Z,19.50
2019-02-20T09:15:11.755Z,17.60
2019-02-20T09:17:40.316Z,15.18
2019-02-20T09:20:12.826Z,16.60
2019-02-20T09:22:41.401Z,16.20
2019-02-20T09:25:19.419Z,15.03
2019-02-20T09:27:41.449Z,12.47
2019-02-20T09:30:12.810Z,13.23
2019-02-20T09:32:41.354Z,11.93
2019-02-20T09:35:10.093Z,12.67
2019-02-20T09:37:38.728Z,12.97
2019-02-20T09:40:12.181Z,13.63
2019-02-20T09:42:40.976Z,13.07
2019-02-20T09:45:09.930Z,12.67
2019-02-20T09:47:38.493Z,15.20
2019-02-20T09:50:10.125Z,12.70
2019-02-20T09:52:38.699Z,13.57
2019-02-20T09:55:10.020Z,13.47
2019-02-20T09:57:38.582Z,13.90
2019-02-20T10:00:16.053Z,14.47
2019-02-20T10:02:44.603Z,13.90
2019-02-20T10:05:13.273Z,14.73
2019-02-20T10:07:41.909Z,14.33
2019-02-20T10:10:12.612Z,14.70
2019-02-20T10:12:41.271Z,13.73
2019-02-20T10:15:14.950Z,14.17
2019-02-20T10:17:43.579Z,13.40
2019-02-20T10:20:12.324Z,14.07
2019-02-20T10:22:40.891Z,13.90
2019-02-20T10:25:11.232Z,13.07
2019-02-20T10:27:39.872Z,12.93
2019-02-20T10:30:20.556Z,13.37
2019-02-20T10:32:49.201Z,13.50
2019-02-20T10:35:17.800Z,16.10
2019-02-20T10:37:46.358Z,13.50
2019-02-20T10:40:15.033Z,13.27
2019-02-20T10:42:44.551Z,13.93
2019-02-20T10:45:13.692Z,15.27
2019-02-20T10:47:42.253Z,12.97
2019-02-20T10:50:12.653Z,12.13
2019-02-20T10:52:41.160Z,10.20
2019-02-20T10:55:10.535Z,10.50
2019-02-20T10:57:39.161Z,10.40
2019-02-20T11:00:23.590Z,10.70
2019-02-20T11:02:44.723Z,11.63
2019-02-20T11:05:13.411Z,10.97
2019-02-20T11:07:42.044Z,11.53
2019-02-20T11:10:10.780Z,11.70
2019-02-20T11:12:39.340Z,11.87
2019-02-20T11:15:08.562Z,12.47
2019-02-20T11:17:37.545Z,13.17
2019-02-20T11:20:11.054Z,12.73
2019-02-20T11:22:39.617Z,11.93
2019-02-20T11:25:12.836Z,11.73
2019-02-20T11:27:41.700Z,10.40
2019-02-20T11:30:16.367Z,10.30
2019-02-20T11:32:44.992Z,10.40
2019-02-20T11:35:13.552Z,10.37
2019-02-20T11:37:42.160Z,10.93
2019-02-20T11:40:10.866Z,10.27
2019-02-20T11:42:39.529Z,9.90
2019-02-20T11:45:10.822Z,9.60
2019-02-20T11:47:39.500Z,10.40
2019-02-20T11:50:09.598Z,9.73
2019-02-20T11:52:38.764Z,9.10
2019-02-20T11:55:15.043Z,7.70
2019-02-20T11:57:43.666Z,7.07
2019-02-20T12:00:16.625Z,6.67
2019-02-20T12:02:45.401Z,7.03
2019-02-20T12:05:14.031Z,6.17
2019-02-20T12:07:42.640Z,6.60
2019-02-20T12:10:12.953Z,6.87
2019-02-20T12:12:41.725Z,7.00
2019-02-20T12:15:10.481Z,8.13
2019-02-20T12:17:39.192Z,7.97
2019-02-20T12:20:08.652Z,7.70
2019-02-20T12:22:37.260Z,8.33
2019-02-20T12:25:08.404Z,7.60
2019-02-20T12:27:37.068Z,6.87
2019-02-20T12:30:07.878Z,6.40
2019-02-20T12:32:36.499Z,6.20
2019-02-20T12:35:06.796Z,6.27
2019-02-20T12:37:35.421Z,4.80
2019-02-20T12:40:05.524Z,5.13
2019-02-20T12:42:34.129Z,5.00
2019-02-20T12:45:02.690Z,4.83
2019-02-20T12:47:31.289Z,5.23
2019-02-20T12:49:59.855Z,5.17
2019-02-20T12:52:28.464Z,4.77
2019-02-20T12:54:57.023Z,4.50
2019-02-20T12:57:25.860Z,3.93
2019-02-20T12:59:54.412Z,3.70
2019-02-20T13:02:23.012Z,3.20
2019-02-20T13:04:51.624Z,2.60
2019-02-20T13:07:20.180Z,2.77
2019-02-20T13:09:50.130Z,2.40
2019-02-20T13:12:18.797Z,2.73
2019-02-20T13:14:47.372Z,2.97
2019-02-20T13:17:15.964Z,2.40
2019-02-20T13:19:44.513Z,2.20
2019-02-20T13:22:13.187Z,3.20
2019-02-20T13:24:41.810Z,2.60
2019-02-20T13:27:10.473Z,3.30
2019-02-20T13:29:39.155Z,2.73
2019-02-20T13:32:07.822Z,3.30
2019-02-20T13:34:36.452Z,3.37
2019-02-20T13:37:05.057Z,4.30
2019-02-20T13:39:33.604Z,4.17
2019-02-20T13:42:02.639Z,4.47
2019-02-20T13:44:31.265Z,4.63
2019-02-20T13:46:59.895Z,5.23
2019-02-20T13:49:28.453Z,4.90
2019-02-20T13:51:57.064Z,4.50
2019-02-20T13:54:25.629Z,4.20
2019-02-20T13:57:01.564Z,4.90
2019-02-20T13:59:24.441Z,4.80
2019-02-20T14:01:53.344Z,4.70
2019-02-20T14:04:21.893Z,5.00
2019-02-20T14:06:50.508Z,5.20
2019-02-20T14:09:19.133Z,4.40
2019-02-20T14:11:47.796Z,4.80
2019-02-20T14:14:16.714Z,5.23
2019-02-20T14:16:45.366Z,5.03
2019-02-20T14:19:14.125Z,5.30
2019-02-20T14:21:42.731Z,4.90
2019-02-20T14:24:11.284Z,5.43
2019-02-20T14:26:39.876Z,5.80
2019-02-20T14:29:08.436Z,6.40
2019-02-20T14:31:37.904Z,6.50
2019-02-20T14:34:06.456Z,6.03
2019-02-20T14:36:35.068Z,6.30
2019-02-20T14:39:04.665Z,6.60
2019-02-20T14:41:33.276Z,6.63
2019-02-20T14:44:01.824Z,6.67
2019-02-20T14:46:30.450Z,7.10
2019-02-20T14:48:58.989Z,7.20
2019-02-20T14:51:27.895Z,6.47
2019-02-20T14:53:56.460Z,7.50
2019-02-20T14:56:25.059Z,6.27
2019-02-20T14:58:53.630Z,6.87
2019-02-20T15:01:22.315Z,7.00
2019-02-20T15:03:50.859Z,6.27
2019-02-20T15:06:19.689Z,6.50
2019-02-20T15:08:48.449Z,5.57
2019-02-20T15:11:17.136Z,6.10
2019-02-20T15:13:46.060Z,4.93
2019-02-20T15:16:14.670Z,7.00
2019-02-20T15:18:43.231Z,6.33
2019-02-20T15:21:11.784Z,6.10
2019-02-20T15:23:40.400Z,6.23
2019-02-20T15:26:09.129Z,5.53
2019-02-20T15:28:37.708Z,5.50
2019-02-20T15:31:06.542Z,5.50
2019-02-20T15:33:35.819Z,5.00
2019-02-20T15:36:04.590Z,5.37
2019-02-20T15:38:33.449Z,4.83
2019-02-20T15:41:02.407Z,5.07
2019-02-20T15:43:31.034Z,4.47
2019-02-20T15:45:59.667Z,5.03
2019-02-20T15:48:30.612Z,4.50
2019-02-20T15:51:00.700Z,5.57
2019-02-20T15:53:29.341Z,5.37
2019-02-20T15:55:58.240Z,5.07
2019-02-20T15:58:27.339Z,4.53
2019-02-20T16:00:56.005Z,4.53
2019-02-20T16:03:24.602Z,4.33
2019-02-20T16:05:53.233Z,5.10
2019-02-20T16:08:22.057Z,4.70
2019-02-20T16:10:50.589Z,4.90
2019-02-20T16:13:19.496Z,4.40
2019-02-20T16:15:48.054Z,4.60
2019-02-20T16:18:16.675Z,4.53
2019-02-20T16:20:45.325Z,4.60
2019-02-20T16:23:13.962Z,4.97
2019-02-20T16:25:42.583Z,5.10
2019-02-20T16:28:11.176Z,5.00
2019-02-20T16:30:39.902Z,4.97
2019-02-20T16:33:08.533Z,5.13
2019-02-20T16:35:37.219Z,6.00
2019-02-20T16:38:05.806Z,6.60
2019-02-20T16:40:34.361Z,6.73
2019-02-20T16:43:03.876Z,8.03
2019-02-20T16:45:32.906Z,7.63
2019-02-20T16:48:01.516Z,6.30
2019-02-20T16:50:30.072Z,6.07
2019-02-20T16:52:58.781Z,6.37
2019-02-20T16:55:27.419Z,5.00
2019-02-20T16:57:57.111Z,5.70
2019-02-20T17:00:25.910Z,6.87
2019-02-20T17:02:54.735Z,11.47
2019-02-20T17:05:23.441Z,11.17
2019-02-20T17:07:52.161Z,7.13
2019-02-20T17:10:20.781Z,6.77
2019-02-20T17:12:49.478Z,5.53
2019-02-20T17:15:18.372Z,6.07
2019-02-20T17:17:47.361Z,4.93
2019-02-20T17:20:18.167Z,5.43
2019-02-20T17:22:46.865Z,4.70
2019-02-20T17:25:16.100Z,4.67
2019-02-20T17:27:44.711Z,5.03
2019-02-20T17:30:20.077Z,5.83
2019-02-20T17:32:49.001Z,6.23
2019-02-20T17:35:17.692Z,4.90
2019-02-20T17:37:46.327Z,5.73
2019-02-20T17:40:15.962Z,4.90
2019-02-20T17:42:44.509Z,3.90
2019-02-20T17:45:15.534Z,3.80
2019-02-20T17:47:44.450Z,3.80
2019-02-20T17:50:15.651Z,3.00
2019-02-20T17:52:44.204Z,3.60
2019-02-20T17:55:13.476Z,3.93
2019-02-20T17:57:42.093Z,3.87
2019-02-20T18:00:14.513Z,3.63
2019-02-20T18:02:43.133Z,3.13
2019-02-20T18:05:13.778Z,3.37
2019-02-20T18:07:49.445Z,3.67
2019-02-20T18:10:12.601Z,3.67
2019-02-20T18:12:41.224Z,3.10
2019-02-20T18:15:11.684Z,3.50
2019-02-20T18:17:40.297Z,3.10
2019-02-20T18:20:10.164Z,3.70
2019-02-20T18:22:38.744Z,3.77
2019-02-20T18:25:11.616Z,3.80
2019-02-20T18:27:40.211Z,3.27
2019-02-20T18:30:11.643Z,3.83
2019-02-20T18:32:40.277Z,4.60
2019-02-20T18:35:11.975Z,4.43
2019-02-20T18:37:40.519Z,5.63
2019-02-20T18:40:11.694Z,5.60
2019-02-20T18:42:40.256Z,4.93
2019-02-20T18:45:15.799Z,4.90
2019-02-20T18:47:44.427Z,5.70
2019-02-20T18:50:14.506Z,5.60
2019-02-20T18:52:43.054Z,5.27
2019-02-20T18:55:14.960Z,5.43
2019-02-20T18:57:43.520Z,5.13
2019-02-20T19:00:20.768Z,6.03
2019-02-20T19:02:49.380Z,5.43
2019-02-20T19:05:19.100Z,5.50
2019-02-20T19:07:47.860Z,4.80
2019-02-20T19:10:36.878Z,4.90
2019-02-20T19:13:17.211Z,5.13
2019-02-20T19:15:48.904Z,5.40
2019-02-20T19:18:42.946Z,4.63
2019-02-20T19:21:17.270Z,5.23
2019-02-20T19:24:00.968Z,6.80
2019-02-20T19:26:38.407Z,6.10
2019-02-20T19:29:10.041Z,6.20
2019-02-20T19:32:02.539Z,7.57
2019-02-20T19:34:40.649Z,7.23
2019-02-20T19:37:23.830Z,6.80
2019-02-20T19:39:55.521Z,6.03
2019-02-20T19:42:33.057Z,6.87
2019-02-20T19:45:07.558Z,5.33
2019-02-20T19:47:50.217Z,5.43
2019-02-20T19:50:29.722Z,4.63
2019-02-20T19:53:04.097Z,5.17
2019-02-20T19:55:52.268Z,5.43
2019-02-20T19:58:54.914Z,4.90
2019-02-20T20:01:46.306Z,4.90
2019-02-20T20:04:29.870Z,5.33
2019-02-20T20:07:22.350Z,5.20
2019-02-20T20:09:53.956Z,5.10
2019-02-20T20:12:40.333Z,4.90
2019-02-20T20:15:32.980Z,4.93
2019-02-20T20:18:37.512Z,4.77
2019-02-20T20:21:28.343Z,4.60
2019-02-20T20:24:11.708Z,5.07
2019-02-20T20:26:59.452Z,5.50
2019-02-20T20:29:50.166Z,5.60
2019-02-20T20:32:24.856Z,5.40
2019-02-20T20:34:59.272Z,4.93
2019-02-20T20:37:42.509Z,5.00
2019-02-20T20:40:26.074Z,5.17
2019-02-20T20:43:09.400Z,4.87
2019-02-20T20:45:46.618Z,4.77
2019-02-20T20:48:18.269Z,5.27
2019-02-20T20:51:01.856Z,5.07
2019-02-20T20:53:56.151Z,4.77
2019-02-20T20:56:33.116Z,4.93
2019-02-20T20:59:37.869Z,4.47
2019-02-20T21:02:09.569Z,4.77
2019-02-20T21:04:41.185Z,5.10
2019-02-20T21:07:32.396Z,5.67
2019-02-20T21:10:12.924Z,5.70
2019-02-20T21:13:09.977Z,7.50
2019-02-20T21:15:44.375Z,5.63
2019-02-20T21:18:36.720Z,6.10
2019-02-20T21:21:08.411Z,6.63
2019-02-20T21:23:48.516Z,7.93
2019-02-20T21:26:23.112Z,8.43
2019-02-20T21:29:12.700Z,9.97
2019-02-20T21:32:06.756Z,8.20
2019-02-20T21:34:41.304Z,6.83
2019-02-20T21:37:27.871Z,7.27
2019-02-20T21:40:17.292Z,7.20
2019-02-20T21:42:51.658Z,7.30
2019-02-20T21:45:29.004Z,6.03
2019-02-20T21:48:09.682Z,5.40
2019-02-20T21:50:44.285Z,6.40
2019-02-20T21:53:33.792Z,6.30
2019-02-20T21:56:23.441Z,5.87
2019-02-20T21:59:03.411Z,5.27
2019-02-20T22:01:49.813Z,5.87
2019-02-20T22:04:37.873Z,5.80
2019-02-20T22:07:09.538Z,6.20
2019-02-20T22:09:43.621Z,6.70
2019-02-20T22:12:15.302Z,5.97
2019-02-20T22:14:58.555Z,6.20
2019-02-20T22:17:33.036Z,6.10
2019-02-20T22:20:10.301Z,5.77
2019-02-20T22:23:00.103Z,6.30
2019-02-20T22:25:46.605Z,8.95
2019-02-20T22:28:40.543Z,10.13
2019-02-20T22:31:28.385Z,7.60
2019-02-20T22:34:32.835Z,7.23
2019-02-20T22:37:04.656Z,7.40
2019-02-20T22:39:55.502Z,7.20
2019-02-20T22:42:36.012Z,7.90
2019-02-20T22:45:33.501Z,8.60
2019-02-20T22:48:19.982Z,7.30
2019-02-20T22:51:11.023Z,7.03
2019-02-20T22:53:48.527Z,7.92
2019-02-20T22:56:48.557Z,8.20
2019-02-20T22:59:20.223Z,6.90
2019-02-20T23:02:24.856Z,7.07
2019-02-20T23:04:59.375Z,7.08
2019-02-20T23:07:33.757Z,8.23
2019-02-20T23:10:10.895Z,8.00
2019-02-20T23:13:00.576Z,7.50
2019-02-20T23:15:29.137Z,7.20
2019-02-20T23:17:57.743Z,7.80
2019-02-20T23:20:26.308Z,7.10
2019-02-20T23:22:57.020Z,8.93
2019-02-20T23:25:25.117Z,9.10
2019-02-20T23:27:53.717Z,7.47
2019-02-20T23:30:22.274Z,8.53
2019-02-20T23:32:50.882Z,7.85
2019-02-20T23:35:19.442Z,7.92
2019-02-20T23:37:48.045Z,7.97
2019-02-20T23:40:16.617Z,7.30
2019-02-20T23:42:45.221Z,8.73
2019-02-20T23:45:13.922Z,8.15
2019-02-20T23:47:42.487Z,7.40
2019-02-20T23:50:11.272Z,7.72
2019-02-20T23:52:39.822Z,8.08
2019-02-20T23:55:08.569Z,7.60
2019-02-20T23:57:37.129Z,8.25
